createdAt,value
2018-12-07T00:01:30.689Z,6.87
2018-12-07T00:04:21.625Z,7.70
2018-12-07T00:07:11.579Z,7.53
2018-12-07T00:10:02.387Z,6.97
2018-12-07T00:12:53.295Z,7.30
2018-12-07T00:15:43.975Z,7.70
2018-12-07T00:18:34.900Z,7.33
2018-12-07T00:21:25.863Z,6.87
2018-12-07T00:24:16.013Z,6.73
2018-12-07T00:27:07.059Z,7.07
2018-12-07T00:29:57.984Z,6.87
2018-12-07T00:32:48.998Z,6.90
2018-12-07T00:35:38.889Z,7.00
2018-12-07T00:38:28.738Z,6.80
2018-12-07T00:41:18.992Z,7.70
2018-12-07T00:44:09.060Z,7.20
2018-12-07T00:47:00.035Z,7.43
2018-12-07T00:49:50.142Z,7.73
2018-12-07T00:52:40.253Z,6.87
2018-12-07T00:55:39.201Z,7.87
2018-12-07T00:58:30.179Z,7.20
2018-12-07T01:01:20.229Z,6.80
2018-12-07T01:04:11.098Z,7.20
2018-12-07T01:07:01.067Z,8.10
2018-12-07T01:09:50.937Z,7.10
2018-12-07T01:12:40.987Z,7.37
2018-12-07T01:15:31.173Z,7.00
2018-12-07T01:18:21.979Z,6.90
2018-12-07T01:21:11.920Z,7.17
2018-12-07T01:24:01.960Z,6.60
2018-12-07T01:26:52.995Z,7.10
2018-12-07T01:29:43.767Z,6.97
2018-12-07T01:32:34.591Z,6.60
2018-12-07T01:35:24.767Z,6.77
2018-12-07T01:38:15.664Z,6.83
2018-12-07T01:41:06.431Z,7.10
2018-12-07T01:43:57.427Z,6.77
2018-12-07T01:46:47.274Z,6.40
2018-12-07T01:49:38.176Z,6.87
2018-12-07T01:52:28.078Z,7.10
2018-12-07T01:55:18.018Z,6.70
2018-12-07T01:58:07.767Z,6.63
2018-12-07T02:00:57.770Z,7.23
2018-12-07T02:03:49.516Z,6.93
2018-12-07T02:06:39.665Z,6.93
2018-12-07T02:09:29.522Z,7.10
2018-12-07T02:12:19.679Z,6.70
2018-12-07T02:15:10.587Z,6.97
2018-12-07T02:18:01.469Z,6.70
2018-12-07T02:20:52.185Z,6.03
2018-12-07T02:23:42.191Z,6.30
2018-12-07T02:26:33.237Z,6.63
2018-12-07T02:29:24.117Z,6.73
2018-12-07T02:32:13.931Z,6.63
2018-12-07T02:35:03.870Z,6.70
2018-12-07T02:37:53.823Z,6.53
2018-12-07T02:40:44.025Z,6.73
2018-12-07T02:43:34.754Z,7.00
2018-12-07T02:46:24.830Z,6.67
2018-12-07T02:49:15.624Z,6.90
2018-12-07T02:52:06.630Z,7.00
2018-12-07T02:54:56.445Z,6.63
2018-12-07T02:57:46.355Z,7.13
2018-12-07T03:00:36.497Z,7.23
2018-12-07T03:03:26.467Z,7.03
2018-12-07T03:06:16.444Z,6.73
2018-12-07T03:09:07.574Z,7.20
2018-12-07T03:11:57.603Z,7.00
2018-12-07T03:14:47.632Z,6.57
2018-12-07T03:17:37.555Z,6.70
2018-12-07T03:20:27.359Z,7.03
2018-12-07T03:23:17.211Z,6.80
2018-12-07T03:26:07.299Z,6.40
2018-12-07T03:28:57.947Z,6.63
2018-12-07T03:31:47.926Z,7.10
2018-12-07T03:34:38.735Z,6.70
2018-12-07T03:37:28.893Z,6.93
2018-12-07T03:40:19.731Z,7.37
2018-12-07T03:43:10.991Z,7.53
2018-12-07T03:46:01.251Z,7.27
2018-12-07T03:48:51.705Z,7.67
2018-12-07T03:51:42.235Z,7.97
2018-12-07T03:54:32.138Z,7.40
2018-12-07T03:57:22.084Z,7.13
2018-12-07T04:00:12.844Z,8.20
2018-12-07T04:03:02.904Z,6.83
2018-12-07T04:05:52.907Z,7.13
2018-12-07T04:08:43.508Z,7.20
2018-12-07T04:11:34.394Z,7.37
2018-12-07T04:14:25.256Z,7.10
2018-12-07T04:17:15.344Z,7.30
2018-12-07T04:20:06.355Z,6.80
2018-12-07T04:22:57.113Z,7.10
2018-12-07T04:25:48.288Z,6.93
2018-12-07T04:28:41.314Z,6.33
2018-12-07T04:31:31.960Z,7.00
2018-12-07T04:34:21.882Z,6.40
2018-12-07T04:37:11.802Z,6.90
2018-12-07T04:40:01.880Z,7.10
2018-12-07T04:42:52.508Z,6.60
2018-12-07T04:45:42.576Z,6.70
2018-12-07T04:48:32.601Z,6.93
2018-12-07T04:51:22.696Z,7.00
2018-12-07T04:54:13.461Z,6.77
2018-12-07T04:57:04.406Z,6.93
2018-12-07T04:59:55.219Z,6.87
2018-12-07T05:02:46.208Z,6.83
2018-12-07T05:05:37.112Z,7.17
2018-12-07T05:08:27.404Z,7.03
2018-12-07T05:11:18.118Z,7.37
2018-12-07T05:14:09.023Z,7.23
2018-12-07T05:16:59.025Z,6.83
2018-12-07T05:19:48.973Z,6.67
2018-12-07T05:22:39.010Z,7.53
2018-12-07T05:25:29.403Z,7.27
2018-12-07T05:28:19.983Z,6.93
2018-12-07T05:31:10.019Z,6.83
2018-12-07T05:34:00.610Z,6.73
2018-12-07T05:36:50.874Z,7.13
2018-12-07T05:39:40.570Z,7.20
2018-12-07T05:42:30.604Z,6.93
2018-12-07T05:45:20.586Z,6.83
2018-12-07T05:48:10.693Z,7.10
2018-12-07T05:51:02.419Z,6.67
2018-12-07T05:53:52.380Z,7.20
2018-12-07T05:56:42.551Z,7.40
2018-12-07T05:59:33.340Z,7.13
2018-12-07T06:02:23.275Z,7.50
2018-12-07T06:05:13.279Z,7.77
2018-12-07T06:08:03.174Z,6.50
2018-12-07T06:10:54.152Z,6.90
2018-12-07T06:13:45.283Z,7.20
2018-12-07T06:16:35.728Z,6.47
2018-12-07T06:19:25.557Z,7.07
2018-12-07T06:22:15.852Z,6.30
2018-12-07T06:25:06.039Z,6.13
2018-12-07T06:27:56.537Z,5.93
2018-12-07T06:30:47.656Z,6.10
2018-12-07T06:33:38.394Z,6.33
2018-12-07T06:36:28.326Z,6.20
2018-12-07T06:39:18.116Z,6.10
2018-12-07T06:42:08.082Z,6.20
2018-12-07T06:44:58.031Z,5.73
2018-12-07T06:47:48.012Z,5.77
2018-12-07T06:50:37.810Z,5.90
2018-12-07T06:53:27.819Z,6.07
2018-12-07T06:56:17.676Z,6.67
2018-12-07T06:59:07.802Z,6.43
2018-12-07T07:01:57.958Z,6.50
2018-12-07T07:04:48.795Z,5.93
2018-12-07T07:07:38.629Z,6.77
2018-12-07T07:10:28.408Z,5.87
2018-12-07T07:13:18.412Z,6.27
2018-12-07T07:16:08.420Z,6.70
2018-12-07T07:18:59.302Z,6.10
2018-12-07T07:21:49.219Z,6.37
2018-12-07T07:24:40.136Z,6.20
2018-12-07T07:27:30.915Z,5.93
2018-12-07T07:30:21.795Z,6.57
2018-12-07T07:33:11.890Z,6.53
2018-12-07T07:36:01.999Z,6.90
2018-12-07T07:38:52.883Z,6.57
2018-12-07T07:41:43.814Z,6.83
2018-12-07T07:44:33.792Z,6.40
2018-12-07T07:47:23.888Z,6.60
2018-12-07T07:50:14.786Z,6.47
2018-12-07T07:53:04.723Z,7.17
2018-12-07T07:55:54.795Z,6.83
2018-12-07T07:58:45.605Z,6.83
2018-12-07T08:01:35.639Z,5.83
2018-12-07T08:04:25.694Z,6.27
2018-12-07T08:07:16.616Z,6.30
2018-12-07T08:10:06.743Z,6.73
2018-12-07T08:12:56.690Z,6.80
2018-12-07T08:15:46.611Z,6.67
2018-12-07T08:18:36.643Z,6.80
2018-12-07T08:21:26.603Z,6.90
2018-12-07T08:24:16.566Z,6.47
2018-12-07T08:27:06.646Z,7.00
2018-12-07T08:29:56.702Z,6.10
2018-12-07T08:32:46.715Z,6.63
2018-12-07T08:35:36.543Z,6.27
2018-12-07T08:38:26.581Z,6.10
2018-12-07T08:41:16.490Z,6.90
2018-12-07T08:44:06.459Z,6.20
2018-12-07T08:46:56.440Z,6.67
2018-12-07T08:49:52.487Z,6.70
2018-12-07T08:52:42.615Z,6.80
2018-12-07T08:55:33.543Z,6.37
2018-12-07T08:58:23.455Z,6.20
2018-12-07T09:01:13.838Z,6.83
2018-12-07T09:04:04.023Z,7.13
2018-12-07T09:06:53.952Z,6.70
2018-12-07T09:09:44.950Z,6.90
2018-12-07T09:12:34.947Z,7.23
2018-12-07T09:15:24.820Z,7.63
2018-12-07T09:18:14.960Z,7.90
2018-12-07T09:21:05.841Z,6.97
2018-12-07T09:23:55.711Z,7.43
2018-12-07T09:26:45.603Z,6.93
2018-12-07T09:29:35.461Z,7.50
2018-12-07T09:32:25.506Z,7.23
2018-12-07T09:35:16.343Z,7.27
2018-12-07T09:38:12.959Z,7.33
2018-12-07T09:40:59.239Z,7.40
2018-12-07T09:43:49.292Z,7.80
2018-12-07T09:46:39.362Z,7.13
2018-12-07T09:49:30.131Z,6.77
2018-12-07T09:52:20.203Z,7.40
2018-12-07T09:55:10.160Z,8.50
2018-12-07T09:58:00.165Z,8.23
2018-12-07T10:00:50.129Z,7.90
2018-12-07T10:03:40.101Z,8.53
2018-12-07T10:06:30.861Z,8.67
2018-12-07T10:09:21.770Z,7.63
2018-12-07T10:12:12.618Z,8.37
2018-12-07T10:15:02.720Z,7.47
2018-12-07T10:17:53.436Z,7.40
2018-12-07T10:20:43.434Z,7.53
2018-12-07T10:23:33.271Z,6.90
2018-12-07T10:26:23.279Z,7.13
2018-12-07T10:29:13.221Z,7.20
2018-12-07T10:32:04.282Z,7.37
2018-12-07T10:34:54.244Z,7.30
2018-12-07T10:37:44.203Z,7.50
2018-12-07T10:40:34.292Z,7.40
2018-12-07T10:43:25.106Z,7.37
2018-12-07T10:46:16.987Z,6.93
2018-12-07T10:49:07.451Z,7.17
2018-12-07T10:51:58.838Z,7.27
2018-12-07T10:54:49.380Z,7.10
2018-12-07T10:57:39.463Z,7.13
2018-12-07T11:00:35.339Z,7.63
2018-12-07T11:03:30.496Z,8.20
2018-12-07T11:06:26.436Z,7.63
2018-12-07T11:09:22.164Z,8.00
2018-12-07T11:12:17.023Z,7.30
2018-12-07T11:15:11.914Z,7.83
2018-12-07T11:18:06.913Z,7.93
2018-12-07T11:21:01.830Z,7.60
2018-12-07T11:24:00.613Z,7.37
2018-12-07T11:26:55.456Z,7.40
2018-12-07T11:29:50.556Z,7.53
2018-12-07T11:32:46.058Z,7.73
2018-12-07T11:35:39.808Z,7.53
2018-12-07T11:38:30.150Z,7.63
2018-12-07T11:41:20.124Z,7.87
2018-12-07T11:44:12.000Z,7.63
2018-12-07T11:47:01.927Z,7.33
2018-12-07T11:49:51.829Z,7.27
2018-12-07T11:52:41.751Z,8.37
2018-12-07T11:55:31.744Z,8.60
2018-12-07T11:58:21.912Z,7.87
2018-12-07T12:01:12.702Z,6.97
2018-12-07T12:04:03.415Z,7.83
2018-12-07T12:06:54.324Z,6.57
2018-12-07T12:09:44.490Z,6.77
2018-12-07T12:12:37.102Z,6.80
2018-12-07T12:15:26.957Z,6.80
2018-12-07T12:18:16.931Z,6.73
2018-12-07T12:21:07.120Z,6.90
2018-12-07T12:23:57.787Z,6.93
2018-12-07T12:26:47.922Z,7.10
2018-12-07T12:29:37.827Z,6.40
2018-12-07T12:32:27.682Z,6.20
2018-12-07T12:35:17.579Z,6.77
2018-12-07T12:38:07.701Z,6.90
2018-12-07T12:40:58.543Z,7.23
2018-12-07T12:43:49.288Z,6.97
2018-12-07T12:46:39.079Z,6.87
2018-12-07T12:49:29.120Z,6.50
2018-12-07T12:52:19.152Z,7.07
2018-12-07T12:55:09.404Z,6.77
2018-12-07T12:58:00.172Z,6.93
2018-12-07T13:00:51.010Z,6.80
2018-12-07T13:03:40.948Z,7.00
2018-12-07T13:06:31.296Z,7.40
2018-12-07T13:09:22.053Z,7.23
2018-12-07T13:12:12.284Z,7.20
2018-12-07T13:15:03.212Z,7.43
2018-12-07T13:17:54.054Z,7.00
2018-12-07T13:20:43.967Z,7.53
2018-12-07T13:23:34.287Z,7.40
2018-12-07T13:26:24.253Z,7.73
2018-12-07T13:29:14.120Z,6.97
2018-12-07T13:32:04.243Z,6.90
2018-12-07T13:34:55.132Z,7.10
2018-12-07T13:37:45.842Z,6.63
2018-12-07T13:40:36.018Z,6.87
2018-12-07T13:43:26.852Z,6.80
2018-12-07T13:46:17.724Z,6.77
2018-12-07T13:49:08.687Z,8.07
2018-12-07T13:51:59.861Z,7.43
2018-12-07T13:54:50.846Z,7.53
2018-12-07T13:57:41.124Z,7.30
2018-12-07T14:00:32.288Z,7.37
2018-12-07T14:03:23.252Z,7.67
2018-12-07T14:06:15.039Z,7.23
2018-12-07T14:09:07.363Z,7.50
2018-12-07T14:11:57.468Z,7.43
2018-12-07T14:14:48.437Z,7.40
2018-12-07T14:17:39.962Z,7.43
2018-12-07T14:20:30.740Z,7.73
2018-12-07T14:23:21.764Z,7.97
2018-12-07T14:26:12.598Z,8.00
2018-12-07T14:29:03.718Z,8.10
2018-12-07T14:31:54.541Z,7.67
2018-12-07T14:34:44.691Z,7.47
2018-12-07T14:37:35.723Z,8.23
2018-12-07T14:40:25.851Z,7.57
2018-12-07T14:43:16.913Z,7.90
2018-12-07T14:46:08.182Z,7.97
2018-12-07T14:48:59.142Z,7.30
2018-12-07T14:51:50.282Z,7.80
2018-12-07T14:54:42.397Z,7.47
2018-12-07T14:57:33.335Z,7.77
2018-12-07T15:00:24.304Z,7.97
2018-12-07T15:03:15.186Z,7.87
2018-12-07T15:06:06.151Z,7.50
2018-12-07T15:08:57.196Z,8.50
2018-12-07T15:11:48.004Z,7.40
2018-12-07T15:14:37.973Z,7.90
2018-12-07T15:17:27.988Z,8.00
2018-12-07T15:20:17.700Z,7.97
2018-12-07T15:23:07.650Z,8.47
2018-12-07T15:25:57.756Z,7.63
2018-12-07T15:28:48.896Z,7.80
2018-12-07T15:31:39.602Z,8.13
2018-12-07T15:34:30.391Z,7.73
2018-12-07T15:37:20.532Z,8.07
2018-12-07T15:40:11.629Z,8.00
2018-12-07T15:43:02.278Z,8.70
2018-12-07T15:45:52.262Z,8.40
2018-12-07T15:48:43.057Z,8.73
2018-12-07T15:51:34.443Z,9.33
2018-12-07T15:54:25.579Z,9.00
2018-12-07T15:57:16.981Z,8.00
2018-12-07T16:00:08.573Z,8.90
2018-12-07T16:02:59.582Z,8.77
2018-12-07T16:05:50.677Z,8.43
2018-12-07T16:08:42.688Z,8.60
2018-12-07T16:11:33.834Z,8.53
2018-12-07T16:14:24.868Z,9.33
2018-12-07T16:17:15.025Z,9.13
2018-12-07T16:20:10.335Z,9.10
2018-12-07T16:23:01.245Z,9.03
2018-12-07T16:25:52.690Z,10.07
2018-12-07T16:28:43.238Z,9.03
2018-12-07T16:31:34.449Z,9.83
2018-12-07T16:34:25.140Z,9.70
2018-12-07T16:37:16.145Z,10.37
2018-12-07T16:40:08.719Z,9.67
2018-12-07T16:42:58.991Z,10.07
2018-12-07T16:45:51.057Z,9.47
2018-12-07T16:48:42.179Z,10.23
2018-12-07T16:51:32.723Z,10.07
2018-12-07T16:54:22.679Z,10.23
2018-12-07T16:57:13.734Z,9.47
2018-12-07T17:00:04.857Z,10.00
2018-12-07T17:02:56.722Z,9.90
2018-12-07T17:05:47.637Z,9.73
2018-12-07T17:08:38.436Z,9.37
2018-12-07T17:11:29.462Z,9.37
2018-12-07T17:14:20.597Z,9.07
2018-12-07T17:17:10.574Z,10.17
2018-12-07T17:20:01.699Z,9.20
2018-12-07T17:22:52.734Z,8.87
2018-12-07T17:25:43.550Z,9.20
2018-12-07T17:28:33.412Z,9.07
2018-12-07T17:31:24.698Z,9.07
2018-12-07T17:34:15.668Z,9.17
2018-12-07T17:37:06.537Z,9.63
2018-12-07T17:39:57.415Z,9.17
2018-12-07T17:42:48.247Z,8.80
2018-12-07T17:45:38.380Z,9.13
2018-12-07T17:48:29.419Z,8.90
2018-12-07T17:51:20.320Z,8.10
2018-12-07T17:54:11.215Z,8.50
2018-12-07T17:57:02.246Z,8.80
2018-12-07T17:59:52.216Z,9.30
2018-12-07T18:02:42.704Z,9.17
2018-12-07T18:05:33.499Z,9.33
2018-12-07T18:08:25.022Z,8.67
2018-12-07T18:11:15.803Z,8.87
2018-12-07T18:14:06.884Z,9.17
2018-12-07T18:16:57.178Z,9.20
2018-12-07T18:19:48.111Z,8.63
2018-12-07T18:22:39.919Z,9.30
2018-12-07T18:25:29.923Z,9.23
2018-12-07T18:28:20.242Z,9.40
2018-12-07T18:31:11.037Z,9.83
2018-12-07T18:34:01.337Z,9.90
2018-12-07T18:36:53.253Z,9.90
2018-12-07T18:39:44.328Z,9.70
2018-12-07T18:42:35.542Z,9.90
2018-12-07T18:45:26.341Z,10.10
2018-12-07T18:48:17.672Z,10.90
2018-12-07T18:51:08.612Z,11.20
2018-12-07T18:53:59.536Z,9.90
2018-12-07T18:56:50.154Z,11.13
2018-12-07T18:59:40.481Z,10.37
2018-12-07T19:02:31.467Z,10.03
2018-12-07T19:05:22.330Z,10.00
2018-12-07T19:08:13.450Z,9.90
2018-12-07T19:11:04.577Z,10.23
2018-12-07T19:13:55.386Z,10.50
2018-12-07T19:16:46.384Z,10.43
2018-12-07T19:19:37.275Z,11.33
2018-12-07T19:22:28.192Z,10.73
2018-12-07T19:25:19.501Z,11.17
2018-12-07T19:28:10.124Z,10.30
2018-12-07T19:31:01.129Z,10.47
2018-12-07T19:33:51.767Z,9.33
2018-12-07T19:36:42.779Z,9.23
2018-12-07T19:39:33.590Z,9.90
2018-12-07T19:42:24.634Z,10.00
2018-12-07T19:45:15.636Z,9.07
2018-12-07T19:48:06.436Z,8.87
2018-12-07T19:50:59.750Z,9.73
2018-12-07T19:53:50.391Z,9.27
2018-12-07T19:56:40.563Z,9.10
2018-12-07T19:59:30.347Z,9.03
2018-12-07T20:02:21.174Z,9.20
2018-12-07T20:05:11.414Z,9.30
2018-12-07T20:08:02.204Z,8.80
2018-12-07T20:10:54.057Z,9.63
2018-12-07T20:13:44.410Z,9.10
2018-12-07T20:16:35.425Z,9.20
2018-12-07T20:19:26.506Z,9.70
2018-12-07T20:22:17.297Z,8.83
2018-12-07T20:25:08.397Z,9.43
2018-12-07T20:27:59.087Z,9.60
2018-12-07T20:30:50.061Z,8.97
2018-12-07T20:33:41.083Z,8.90
2018-12-07T20:36:32.136Z,8.33
2018-12-07T20:39:24.007Z,9.10
2018-12-07T20:42:15.200Z,9.53
2018-12-07T20:45:06.414Z,9.40
2018-12-07T20:47:57.162Z,9.03
2018-12-07T20:50:47.055Z,8.93
2018-12-07T20:53:37.249Z,8.43
2018-12-07T20:56:27.305Z,8.83
2018-12-07T20:59:18.553Z,8.80
2018-12-07T21:02:09.738Z,8.70
2018-12-07T21:05:07.936Z,8.93
2018-12-07T21:08:40.789Z,8.13
2018-12-07T21:11:42.103Z,7.97
2018-12-07T21:14:37.720Z,8.63
2018-12-07T21:17:34.305Z,7.27
2018-12-07T21:20:26.646Z,7.73
2018-12-07T21:23:17.045Z,8.13
2018-12-07T21:26:07.674Z,7.80
2018-12-07T21:28:57.706Z,7.93
2018-12-07T21:31:47.701Z,8.33
2018-12-07T21:35:04.325Z,8.07
2018-12-07T21:37:55.188Z,7.70
2018-12-07T21:40:46.406Z,7.70
2018-12-07T21:43:37.298Z,8.50
2018-12-07T21:46:28.242Z,7.90
2018-12-07T21:49:18.970Z,8.57
2018-12-07T21:52:31.159Z,8.20
2018-12-07T21:55:21.560Z,8.00
2018-12-07T21:58:12.362Z,8.57
2018-12-07T22:01:02.474Z,8.10
2018-12-07T22:03:53.654Z,8.07
2018-12-07T22:06:44.773Z,8.00
2018-12-07T22:09:35.745Z,7.80
2018-12-07T22:12:26.643Z,7.67
2018-12-07T22:15:16.733Z,7.50
2018-12-07T22:18:07.565Z,7.90
2018-12-07T22:20:58.003Z,7.40
2018-12-07T22:23:48.598Z,8.40
2018-12-07T22:26:38.594Z,8.10
2018-12-07T22:29:29.627Z,8.63
2018-12-07T22:32:20.953Z,7.83
2018-12-07T22:35:11.595Z,8.13
2018-12-07T22:38:03.727Z,7.60
2018-12-07T22:40:54.625Z,8.23
2018-12-07T22:43:45.036Z,8.80
2018-12-07T22:46:35.843Z,9.03
2018-12-07T22:49:26.804Z,9.33
2018-12-07T22:52:17.642Z,8.80
2018-12-07T22:55:07.934Z,8.43
2018-12-07T22:57:59.099Z,7.57
2018-12-07T23:00:50.000Z,7.30
2018-12-07T23:03:41.018Z,8.13
2018-12-07T23:06:32.141Z,7.90
2018-12-07T23:09:23.040Z,8.13
2018-12-07T23:12:13.483Z,8.50
2018-12-07T23:15:04.529Z,8.50
2018-12-07T23:17:54.906Z,8.03
2018-12-07T23:20:45.266Z,7.83
2018-12-07T23:23:36.379Z,7.43
2018-12-07T23:26:26.681Z,7.17
2018-12-07T23:29:22.993Z,7.83
2018-12-07T23:32:13.226Z,7.63
2018-12-07T23:35:05.521Z,8.07
2018-12-07T23:37:56.840Z,7.77
2018-12-07T23:40:47.035Z,7.40
2018-12-07T23:43:37.003Z,8.00
2018-12-07T23:46:27.231Z,8.07
2018-12-07T23:49:17.299Z,9.10
2018-12-07T23:52:07.274Z,8.23
2018-12-07T23:54:58.119Z,8.53
2018-12-07T23:57:48.047Z,8.30
